createdAt,value
2023-05-12T00:00:35.270Z,19.53
2023-05-12T00:10:56.779Z,19.02
2023-05-12T00:21:18.514Z,20.97
2023-05-12T00:31:39.980Z,15.23
2023-05-12T00:42:01.918Z,13.43
2023-05-12T00:52:23.863Z,13.03
2023-05-12T01:02:46.000Z,17.02
2023-05-12T01:13:08.028Z,16.30
2023-05-12T01:23:35.747Z,17.50
2023-05-12T01:33:57.504Z,18.10
2023-05-12T01:44:20.531Z,17.57
2023-05-12T01:54:42.427Z,22.58
2023-05-12T02:05:05.308Z,25.50
2023-05-12T02:15:27.356Z,24.67
2023-05-12T02:25:50.493Z,29.60
2023-05-12T02:36:12.341Z,30.93
2023-05-12T02:46:34.325Z,29.33
2023-05-12T02:56:58.137Z,23.30
2023-05-12T03:07:19.997Z,23.87
2023-05-12T03:17:41.678Z,15.73
2023-05-12T03:28:03.810Z,12.57
2023-05-12T03:38:25.540Z,15.88
2023-05-12T03:48:47.339Z,11.70
2023-05-12T03:59:09.071Z,11.50
2023-05-12T04:09:33.069Z,9.20
2023-05-12T04:19:54.908Z,10.47
2023-05-12T04:30:17.556Z,9.05
2023-05-12T04:40:39.927Z,9.53
2023-05-12T04:51:01.871Z,8.70
2023-05-12T05:01:23.816Z,6.67
2023-05-12T05:11:45.369Z,7.40
2023-05-12T05:22:07.504Z,5.65
2023-05-12T05:32:29.107Z,3.53
2023-05-12T05:42:50.375Z,7.67
2023-05-12T05:53:12.228Z,4.20
2023-05-12T06:03:34.242Z,6.23
2023-05-12T06:13:55.837Z,4.35
2023-05-12T06:24:17.410Z,5.07
2023-05-12T06:34:38.961Z,7.93
2023-05-12T06:45:01.617Z,7.67
2023-05-12T06:55:24.151Z,3.53
2023-05-12T07:05:46.316Z,4.13
2023-05-12T07:16:07.973Z,2.67
2023-05-12T07:26:29.850Z,2.57
2023-05-12T07:36:51.626Z,3.57
2023-05-12T07:47:13.027Z,2.23
2023-05-12T07:57:34.732Z,3.47
2023-05-12T08:07:56.234Z,2.00
2023-05-12T08:18:17.898Z,3.53
2023-05-12T08:28:39.918Z,5.10
2023-05-12T08:39:02.675Z,3.27
2023-05-12T08:49:25.710Z,4.80
2023-05-12T08:59:47.955Z,7.30
2023-05-12T09:10:29.814Z,3.90
2023-05-12T09:20:55.016Z,3.83
2023-05-12T09:31:22.359Z,4.63
2023-05-12T09:41:44.187Z,3.85
2023-05-12T09:52:05.911Z,7.90
2023-05-12T10:02:28.608Z,2.67
2023-05-12T10:12:41.465Z,2.67
2023-05-12T10:23:03.556Z,2.97
2023-05-12T10:33:25.535Z,5.07
2023-05-12T10:43:49.622Z,2.93
2023-05-12T10:54:18.356Z,2.83
2023-05-12T11:04:55.659Z,8.23
2023-05-12T11:15:18.209Z,4.83
2023-05-12T11:25:41.573Z,3.50
2023-05-12T11:36:06.053Z,2.93
2023-05-12T11:46:30.929Z,5.60
2023-05-12T11:56:54.298Z,4.07
2023-05-12T12:07:15.966Z,3.10
2023-05-12T12:17:38.109Z,4.05
2023-05-12T12:27:59.673Z,2.07
2023-05-12T12:38:21.606Z,2.37
2023-05-12T12:48:43.670Z,10.37
2023-05-12T12:59:05.416Z,3.20
2023-05-12T13:09:26.928Z,2.85
2023-05-12T13:19:48.452Z,5.00
2023-05-12T13:30:13.380Z,3.97
2023-05-12T13:40:35.442Z,5.33
2023-05-12T13:50:57.622Z,3.67
2023-05-12T14:01:19.246Z,2.40
2023-05-12T14:11:41.079Z,3.50
2023-05-12T14:22:05.899Z,3.63
2023-05-12T14:32:31.421Z,3.83
2023-05-12T14:42:52.903Z,11.23
2023-05-12T14:53:14.408Z,3.80
2023-05-12T15:03:36.019Z,4.40
2023-05-12T15:13:57.526Z,2.77
2023-05-12T15:24:19.175Z,5.83
2023-05-12T15:34:40.787Z,9.77
2023-05-12T15:45:02.546Z,2.67
2023-05-12T15:55:24.315Z,7.30
2023-05-12T16:05:45.513Z,3.30
2023-05-12T16:16:08.165Z,3.10
2023-05-12T16:26:30.338Z,5.37
2023-05-12T16:36:52.110Z,3.65
2023-05-12T16:47:13.684Z,6.17
2023-05-12T16:57:35.304Z,2.57
2023-05-12T17:07:57.173Z,7.97
2023-05-12T17:18:18.688Z,5.20
2023-05-12T17:28:40.501Z,5.25
2023-05-12T17:39:02.390Z,6.00
2023-05-12T17:49:24.635Z,4.67
2023-05-12T17:59:46.493Z,7.43
2023-05-12T18:10:09.729Z,5.67
2023-05-12T18:20:31.505Z,6.75
2023-05-12T18:30:54.552Z,26.30
2023-05-12T18:41:17.704Z,30.97
2023-05-12T18:51:38.955Z,41.67
2023-05-12T19:02:01.017Z,13.40
2023-05-12T19:12:22.485Z,4.05
2023-05-12T19:22:44.850Z,4.10
2023-05-12T19:33:06.700Z,5.87
2023-05-12T19:43:28.258Z,5.43
2023-05-12T19:53:49.594Z,7.03
2023-05-12T20:04:11.278Z,8.90
2023-05-12T20:14:33.773Z,7.57
2023-05-12T20:24:55.464Z,8.17
2023-05-12T20:35:17.204Z,6.67
2023-05-12T20:45:38.958Z,3.03
2023-05-12T20:56:00.488Z,4.40
2023-05-12T21:06:22.094Z,5.20
2023-05-12T21:16:43.339Z,7.17
2023-05-12T21:27:06.474Z,4.80
2023-05-12T21:37:28.065Z,4.67
2023-05-12T21:47:51.329Z,7.93
2023-05-12T21:58:13.339Z,6.50
2023-05-12T22:08:37.972Z,5.83
2023-05-12T22:18:59.729Z,6.10
2023-05-12T22:29:21.888Z,7.57
2023-05-12T22:39:43.657Z,6.07
2023-05-12T22:50:05.701Z,5.83
2023-05-12T23:00:28.079Z,5.87
2023-05-12T23:10:49.364Z,6.00
2023-05-12T23:21:10.813Z,6.97
2023-05-12T23:31:32.351Z,16.13
2023-05-12T23:41:53.940Z,12.70
2023-05-12T23:52:15.733Z,5.17
